Time;durP1;ratioP1;P1;durP2;ratioP2;P2;SDS_P1;SDS_P2;PMS_P1;PMS_P2;Temp;Humidity;BMP_temperature;BMP_pressure;BME280_temperature;BME280_humidity;BME280_pressure;Samples;Min_cycle;Max_cycle;Signal;HPM_P1;HPM_P2
2021/11/08 00:02:17;;;;;;;15.70;6.03;;;;;;;9.93;85.92;100951.66;5040840;28;20399;-73
2021/11/08 00:04:43;;;;;;;15.43;6.30;;;;;;;9.52;87.45;100944.91;5041075;28;20170;-72
2021/11/08 00:07:09;;;;;;;17.10;6.27;;;;;;;9.69;87.34;100949.56;5041346;28;20424;-73
2021/11/08 00:09:35;;;;;;;18.40;6.10;;;;;;;9.61;87.25;100952.88;5041074;28;20202;-71
2021/11/08 00:12:01;;;;;;;19.13;7.57;;;;;;;10.07;86.59;100950.13;5040729;28;20251;-71
2021/11/08 00:14:27;;;;;;;15.20;7.23;;;;;;;9.94;86.94;100964.72;5024153;28;20413;-72
2021/11/08 00:19:48;;;;;;;16.67;8.77;;;;;;;10.01;86.06;100964.78;5040700;28;20166;-73
2021/11/08 00:22:14;;;;;;;16.57;6.50;;;;;;;9.38;88.91;100964.63;5040581;28;20486;-73
2021/11/08 00:24:41;;;;;;;17.37;6.10;;;;;;;9.64;87.03;100969.41;5023473;28;20773;-72
2021/11/08 00:27:06;;;;;;;22.30;6.43;;;;;;;9.74;86.86;100967.00;5040453;28;20261;-72
2021/11/08 00:29:34;;;;;;;19.17;6.30;;;;;;;9.63;87.21;100965.91;5023324;28;20477;-72
2021/11/08 00:32:00;;;;;;;12.20;4.97;;;;;;;9.80;88.14;100967.94;5040399;28;20206;-72
2021/11/08 00:34:25;;;;;;;17.00;5.43;;;;;;;9.75;86.61;100968.72;5040186;28;20826;-70
2021/11/08 00:36:51;;;;;;;15.07;5.10;;;;;;;9.56;87.00;100971.88;5040286;28;20186;-69
2021/11/08 00:39:18;;;;;;;13.80;5.87;;;;;;;9.58;87.21;100978.88;5040940;28;20232;-70
2021/11/08 00:41:43;;;;;;;14.47;5.77;;;;;;;9.64;87.30;100974.63;5040080;28;20185;-69
2021/11/08 00:44:09;;;;;;;12.40;5.40;;;;;;;9.64;87.42;100975.50;5040311;28;20399;-70
2021/11/08 00:46:34;;;;;;;13.87;6.07;;;;;;;9.65;87.28;100977.25;5040715;28;20181;-70
2021/11/08 00:48:59;;;;;;;17.10;5.93;;;;;;;9.63;88.08;100984.13;5040106;28;20229;-70
2021/11/08 00:51:25;;;;;;;13.07;5.23;;;;;;;9.77;85.99;100980.06;5039814;28;20242;-70
2021/11/08 00:53:51;;;;;;;12.27;5.90;;;;;;;9.93;86.02;100994.22;5040562;28;20186;-70
2021/11/08 00:56:19;;;;;;;10.90;5.27;;;;;;;9.55;87.05;100996.13;5040013;28;20224;-69
2021/11/08 00:58:45;;;;;;;11.00;4.83;;;;;;;9.71;86.17;100992.94;5040084;28;20416;-69
2021/11/08 01:01:17;;;;;;;12.20;4.80;;;;;;;9.95;85.43;101004.66;5040264;28;20382;-69
2021/11/08 01:03:44;;;;;;;12.17;5.10;;;;;;;9.78;86.26;100996.53;5039884;28;20388;-68
2021/11/08 01:06:11;;;;;;;11.93;5.20;;;;;;;9.76;86.35;101006.94;5039886;28;20421;-68
2021/11/08 01:08:36;;;;;;;13.07;5.07;;;;;;;9.81;86.98;101008.72;5040331;28;20392;-69
2021/11/08 01:11:02;;;;;;;8.27;4.27;;;;;;;9.96;85.15;101003.81;5039413;28;20534;-69
2021/11/08 01:13:28;;;;;;;12.90;5.53;;;;;;;9.91;85.51;101011.53;5039728;28;20174;-69
2021/11/08 01:15:55;;;;;;;11.37;4.67;;;;;;;9.76;86.62;101019.09;5040243;28;20520;-69
2021/11/08 01:18:21;;;;;;;10.47;4.23;;;;;;;9.93;85.50;101019.34;5039631;28;20396;-69
2021/11/08 01:20:47;;;;;;;11.53;4.87;;;;;;;9.90;85.04;101014.09;5039451;28;20436;-69
2021/11/08 01:23:18;;;;;;;12.17;5.00;;;;;;;10.14;85.05;101023.19;5022448;28;20174;-69
2021/11/08 01:25:46;;;;;;;7.70;4.03;;;;;;;10.10;84.92;101022.25;5039544;28;20416;-69
2021/11/08 01:28:11;;;;;;;7.50;4.37;;;;;;;9.63;86.05;101031.00;5039388;28;20738;-69
2021/11/08 01:30:36;;;;;;;7.40;3.90;;;;;;;9.63;86.76;101038.81;5039668;28;20419;-69
2021/11/08 01:33:07;;;;;;;10.60;4.90;;;;;;;10.15;85.13;101040.53;5039182;28;20190;-68
2021/11/08 01:35:45;;;;;;;10.97;4.83;;;;;;;9.69;86.62;101041.53;5039230;28;20265;-69
2021/11/08 01:38:21;;;;;;;10.87;4.90;;;;;;;9.73;86.23;101051.16;5039214;28;20728;-70
2021/11/08 01:40:48;;;;;;;9.60;4.40;;;;;;;9.62;86.59;101052.69;5039110;28;20384;-69
2021/11/08 01:43:13;;;;;;;8.50;4.40;;;;;;;9.78;85.73;101061.63;5039054;28;20406;-69
2021/11/08 01:45:39;;;;;;;9.77;4.40;;;;;;;9.53;86.60;101053.38;5039140;28;20696;-70
2021/11/08 01:48:05;;;;;;;10.23;5.00;;;;;;;9.43;86.79;101060.13;5039487;28;20166;-70
2021/11/08 01:50:31;;;;;;;9.63;5.60;;;;;;;9.57;86.47;101056.94;5038723;28;20484;-69
2021/11/08 01:52:57;;;;;;;15.43;6.30;;;;;;;9.52;87.65;101064.63;5038879;28;20417;-69
2021/11/08 01:55:23;;;;;;;11.57;5.60;;;;;;;9.25;88.74;101067.56;5039213;28;20434;-68
2021/11/08 01:57:49;;;;;;;10.00;5.50;;;;;;;9.70;87.22;101063.22;5021617;28;20716;-69
2021/11/08 02:00:16;;;;;;;17.00;5.60;;;;;;;9.56;87.11;101071.66;5038243;28;20166;-69
2021/11/08 02:02:42;;;;;;;12.57;5.40;;;;;;;9.78;86.13;101066.84;5039171;28;20516;-69
2021/11/08 02:05:09;;;;;;;13.80;5.57;;;;;;;9.58;86.86;101076.91;5038519;28;20392;-69
2021/11/08 02:07:34;;;;;;;16.50;5.17;;;;;;;9.44;87.72;101072.31;5038708;28;20417;-69
2021/11/08 02:09:59;;;;;;;14.37;5.57;;;;;;;9.54;87.04;101075.06;5021921;28;20438;-69
2021/11/08 02:12:26;;;;;;;11.53;5.33;;;;;;;9.47;87.90;101086.22;5038381;28;20244;-69
2021/11/08 02:14:51;;;;;;;14.40;5.30;;;;;;;9.92;85.38;101081.00;5038694;28;20451;-69
2021/11/08 02:17:16;;;;;;;12.47;6.77;;;;;;;9.76;87.37;101087.66;5021913;28;20399;-70
2021/11/08 02:19:41;;;;;;;11.57;4.93;;;;;;;9.74;86.57;101086.75;5038417;28;20508;-70
2021/11/08 02:22:07;;;;;;;13.80;5.97;;;;;;;9.60;86.70;101096.88;5038463;28;20265;-69
2021/11/08 02:24:34;;;;;;;14.30;4.97;;;;;;;9.63;87.34;101096.06;5038999;28;20166;-70
2021/11/08 02:27:00;;;;;;;13.53;5.17;;;;;;;10.10;85.00;101105.63;5021481;28;20223;-69
2021/11/08 02:29:25;;;;;;;22.87;5.83;;;;;;;9.95;85.22;101104.47;5038427;28;20733;-69
2021/11/08 02:31:51;;;;;;;16.43;5.23;;;;;;;9.75;85.54;101108.44;5038555;28;20197;-69
2021/11/08 02:34:17;;;;;;;11.13;4.47;;;;;;;9.81;84.92;101118.09;5038314;28;20174;-69
2021/11/08 02:36:43;;;;;;;9.00;4.40;;;;;;;9.60;85.98;101117.72;5038323;28;20236;-69
2021/11/08 02:39:36;;;;;;;14.23;4.33;;;;;;;9.95;85.04;101121.84;5038746;28;20412;-69
2021/11/08 02:42:03;;;;;;;14.53;4.57;;;;;;;9.63;86.00;101129.03;5038035;28;20170;-70
2021/11/08 02:44:28;;;;;;;7.20;3.80;;;;;;;9.78;85.63;101125.03;5020939;28;20452;-69
2021/11/08 02:46:55;;;;;;;18.10;4.67;;;;;;;10.07;85.01;101136.81;5038112;28;20486;-69
2021/11/08 02:49:29;;;;;;;8.83;3.90;;;;;;;10.10;84.13;101121.25;5038111;28;20166;-70
2021/11/08 02:52:04;;;;;;;13.50;4.50;;;;;;;9.86;85.96;101125.13;5037578;28;20491;-69
2021/11/08 02:54:41;;;;;;;9.20;4.60;;;;;;;9.52;86.90;101128.81;5022230;28;20482;-70
2021/11/08 02:57:07;;;;;;;8.50;4.00;;;;;;;9.77;86.67;101127.59;5022092;28;20434;-69
2021/11/08 02:59:35;;;;;;;9.07;4.10;;;;;;;9.55;87.05;101132.38;5037957;28;20399;-69
2021/11/08 03:02:01;;;;;;;9.80;4.17;;;;;;;9.86;85.42;101127.75;5037781;28;20429;-68
2021/11/08 03:04:33;;;;;;;12.20;4.10;;;;;;;9.87;84.72;101139.94;5038098;28;20425;-68
2021/11/08 03:06:59;;;;;;;7.60;4.20;;;;;;;9.66;85.83;101140.41;5037916;28;20396;-68
2021/11/08 03:09:32;;;;;;;10.70;4.23;;;;;;;9.27;86.85;101141.34;5038029;28;20427;-69
2021/11/08 03:12:00;;;;;;;9.33;3.90;;;;;;;9.39;86.40;101153.72;5021497;28;20210;-68
2021/11/08 03:14:26;;;;;;;8.60;4.40;;;;;;;9.40;87.79;101152.88;5041649;28;20413;-68
2021/11/08 03:16:58;;;;;;;9.10;5.90;;;;;;;9.26;87.03;101149.97;5041896;28;20542;-69
2021/11/08 03:21:51;;;;;;;6.43;4.30;;;;;;;9.12;88.08;101161.78;5041602;28;20407;-68
2021/11/08 03:24:38;;;;;;;11.33;4.90;;;;;;;9.34;88.17;101156.22;5041662;28;20184;-68
2021/11/08 03:27:28;;;;;;;9.80;4.37;;;;;;;8.84;89.52;101171.56;5041667;28;20424;-68
2021/11/08 03:29:54;;;;;;;9.67;4.50;;;;;;;8.96;88.95;101168.38;5041760;28;20420;-68
2021/11/08 03:32:21;;;;;;;9.60;5.17;;;;;;;9.16;88.45;101177.53;5041509;28;20439;-69
2021/11/08 03:34:55;;;;;;;10.67;5.33;;;;;;;8.84;88.64;101179.38;5041597;28;20417;-69
2021/11/08 03:37:22;;;;;;;14.60;4.93;;;;;;;9.27;88.98;101175.16;5041495;28;20395;-69
2021/11/08 03:39:49;;;;;;;10.57;4.63;;;;;;;9.13;88.30;101182.63;5041571;28;20765;-69
2021/11/08 03:42:15;;;;;;;11.80;4.83;;;;;;;9.09;88.42;101179.09;5041753;28;20424;-70
2021/11/08 03:44:40;;;;;;;9.10;4.43;;;;;;;9.12;88.46;101180.91;5041287;28;20379;-69
2021/11/08 03:47:05;;;;;;;11.50;5.93;;;;;;;9.46;87.07;101180.75;5041342;28;20178;-69
2021/11/08 03:49:31;;;;;;;7.97;5.00;;;;;;;9.17;88.56;101186.19;5024421;28;20177;-69
2021/11/08 03:51:56;;;;;;;11.63;4.83;;;;;;;9.53;86.40;101185.25;5049292;28;20225;-70
2021/11/08 03:54:21;;;;;;;11.67;4.60;;;;;;;9.28;87.30;101192.50;5061207;28;20536;-70
2021/11/08 03:56:47;;;;;;;10.30;4.60;;;;;;;9.44;87.30;101201.53;5061885;28;20205;-70
2021/11/08 03:59:12;;;;;;;14.87;5.07;;;;;;;9.59;86.84;101187.97;5061118;28;20224;-68
2021/11/08 04:01:37;;;;;;;7.77;5.10;;;;;;;9.42;86.55;101195.44;5060865;28;20193;-68
2021/11/08 04:04:06;;;;;;;14.47;5.00;;;;;;;9.17;87.36;101200.06;5061520;28;20170;-70
2021/11/08 04:06:37;;;;;;;9.60;4.53;;;;;;;9.17;87.32;101201.81;5061033;28;20174;-69
2021/11/08 04:09:07;;;;;;;19.57;6.00;;;;;;;8.97;87.69;101219.53;5061140;28;20681;-69
2021/11/08 04:11:32;;;;;;;15.43;6.47;;;;;;;9.44;86.81;101223.25;5059953;28;20443;-69
2021/11/08 04:13:58;;;;;;;11.40;4.90;;;;;;;9.53;85.94;101219.09;5060915;28;20470;-68
2021/11/08 04:16:26;;;;;;;11.10;5.23;;;;;;;9.50;86.35;101224.19;5061270;28;20260;-70
2021/11/08 04:18:53;;;;;;;15.63;6.67;;;;;;;9.07;86.92;101221.53;5060707;28;20642;-70
2021/11/08 04:21:19;;;;;;;16.07;6.10;;;;;;;9.27;86.94;101222.00;5060462;28;20431;-69
2021/11/08 04:23:44;;;;;;;10.60;5.30;;;;;;;9.22;86.09;101223.59;5060606;28;20371;-69
2021/11/08 04:26:12;;;;;;;19.97;6.13;;;;;;;9.20;86.83;101226.19;5060576;28;20757;-69
2021/11/08 04:28:38;;;;;;;13.27;5.57;;;;;;;9.29;86.47;101230.69;5060510;28;20174;-68
2021/11/08 04:31:03;;;;;;;10.07;5.50;;;;;;;9.03;87.00;101230.97;5061094;28;20842;-68
2021/11/08 04:33:48;;;;;;;14.13;6.13;;;;;;;9.25;86.87;101239.28;5060587;28;20170;-69
2021/11/08 04:38:49;;;;;;;13.00;6.00;;;;;;;9.13;86.87;101236.38;5060399;28;20387;-69
2021/11/08 04:41:20;;;;;;;11.50;5.03;;;;;;;9.15;86.74;101237.31;5060122;28;20173;-69
2021/11/08 04:49:35;;;;;;;13.07;6.10;;;;;;;9.12;86.04;101245.03;5027005;28;20492;-69
2021/11/08 04:52:19;;;;;;;16.90;5.73;;;;;;;8.92;87.81;101241.09;5042400;28;20462;-69
2021/11/08 04:55:09;;;;;;;13.40;5.03;;;;;;;9.13;86.70;101241.59;5040140;28;20392;-68
2021/11/08 04:57:53;;;;;;;10.97;4.73;;;;;;;9.27;85.41;101246.28;5040042;28;20655;-69
2021/11/08 05:22:42;;;;;;;10.80;4.50;;;;;;;8.78;86.00;101271.06;5039527;28;20430;-69
2021/11/08 05:28:04;;;;;;;11.40;4.43;;;;;;;8.95;85.62;101275.84;5039490;28;20432;-70
2021/11/08 05:30:30;;;;;;;12.20;5.20;;;;;;;9.07;85.47;101279.63;5039671;28;20388;-70
2021/11/08 05:32:56;;;;;;;15.27;4.97;;;;;;;9.15;85.82;101282.41;5039002;28;20556;-70
2021/11/08 05:35:21;;;;;;;12.10;4.90;;;;;;;8.92;85.94;101279.25;5038514;28;20174;-69
2021/11/08 05:37:47;;;;;;;11.93;5.10;;;;;;;9.00;85.57;101277.72;5039494;28;20171;-71
2021/11/08 05:40:21;;;;;;;12.63;4.83;;;;;;;8.94;85.38;101282.75;5039210;28;20262;-69
2021/11/08 05:42:48;;;;;;;15.13;5.03;;;;;;;9.00;85.11;101280.31;5039064;28;20444;-69
2021/11/08 05:45:15;;;;;;;13.57;4.70;;;;;;;8.96;84.62;101288.88;5039125;28;20402;-69
2021/11/08 05:47:41;;;;;;;10.13;4.40;;;;;;;8.93;85.20;101294.00;5038959;28;20427;-69
2021/11/08 05:50:08;;;;;;;11.87;4.13;;;;;;;8.88;84.78;101299.09;5022204;28;20822;-69
2021/11/08 05:52:34;;;;;;;11.47;4.47;;;;;;;9.14;84.37;101303.19;5038340;28;20472;-70
2021/11/08 05:54:59;;;;;;;21.40;4.70;;;;;;;9.21;83.58;101297.28;5021703;28;20413;-70
2021/11/08 06:51:25;;;;;;;10.63;4.67;;;;;;;8.69;85.56;101369.63;5037379;28;20451;-70
2021/11/08 06:53:55;;;;;;;10.63;4.67;;;;;;;8.80;83.81;101372.53;5037809;28;20571;-70
2021/11/08 06:56:26;;;;;;;14.33;4.83;;;;;;;8.81;84.00;101379.47;5037589;28;20208;-69
2021/11/08 06:58:51;;;;;;;9.50;4.53;;;;;;;8.76;84.27;101387.16;5037693;28;20383;-69
2021/11/08 07:01:17;;;;;;;12.50;4.80;;;;;;;8.78;84.30;101380.25;5037632;28;20432;-70
2021/11/08 07:03:42;;;;;;;11.50;4.30;;;;;;;9.09;82.76;101383.69;5038211;28;20429;-69
2021/11/08 07:06:07;;;;;;;13.80;5.20;;;;;;;8.89;83.19;101389.25;5037847;28;20178;-69
2021/11/08 07:08:33;;;;;;;10.13;4.77;;;;;;;8.95;83.68;101398.94;5020675;28;20185;-70
2021/11/08 07:10:58;;;;;;;17.27;6.50;;;;;;;8.88;83.68;101392.69;5038104;28;20284;-69
2021/11/08 07:13:24;;;;;;;10.40;4.63;;;;;;;8.93;83.69;101401.50;5037503;28;20185;-70
2021/11/08 07:15:49;;;;;;;13.07;5.90;;;;;;;8.96;82.46;101400.69;5037737;28;20170;-69
2021/11/08 07:18:15;;;;;;;8.60;4.23;;;;;;;8.70;83.87;101412.97;5020793;28;20174;-70
2021/11/08 07:20:40;;;;;;;12.40;4.40;;;;;;;9.22;82.11;101413.50;5037477;28;20174;-69
2021/11/08 07:23:06;;;;;;;8.63;4.60;;;;;;;9.11;82.45;101415.84;5037622;28;20417;-69
2021/11/08 07:25:31;;;;;;;12.33;4.00;;;;;;;8.80;82.83;101408.94;5020876;28;20280;-68
2021/11/08 07:27:57;;;;;;;17.50;5.80;;;;;;;8.81;83.37;101413.28;5037549;28;20178;-68
2021/11/08 07:30:23;;;;;;;12.40;4.90;;;;;;;8.83;83.09;101409.00;5020455;28;20261;-69
2021/11/08 07:32:48;;;;;;;9.87;4.33;;;;;;;9.16;81.44;101413.34;5020758;28;20194;-68
2021/11/08 07:35:13;;;;;;;15.97;4.73;;;;;;;9.03;81.58;101419.97;5037594;28;20391;-70
2021/11/08 07:37:39;;;;;;;11.00;4.73;;;;;;;9.51;80.13;101421.19;5037442;28;20174;-69
2021/11/08 07:40:05;;;;;;;15.37;5.50;;;;;;;9.37;79.35;101420.84;5037969;28;20181;-69
2021/11/08 07:42:30;;;;;;;10.10;4.43;;;;;;;9.55;78.99;101428.22;5037191;28;20174;-69
2021/11/08 07:44:55;;;;;;;15.33;4.37;;;;;;;10.41;76.12;101419.81;5037374;28;20186;-69
2021/11/08 07:47:21;;;;;;;8.07;4.27;;;;;;;11.08;72.18;101408.06;5038449;28;20270;-69
2021/11/08 07:49:46;;;;;;;11.33;4.80;;;;;;;11.87;69.12;101415.50;5020387;28;20181;-70
2021/11/08 07:52:11;;;;;;;10.07;3.80;;;;;;;12.44;66.80;101416.31;5049819;28;20257;-68
2021/11/08 07:54:37;;;;;;;12.50;4.10;;;;;;;12.30;67.76;101418.75;5056891;28;20212;-69
2021/11/08 07:57:03;;;;;;;8.00;3.93;;;;;;;12.90;64.36;101428.19;5056595;28;20170;-69
2021/11/08 07:59:29;;;;;;;11.80;3.73;;;;;;;12.22;66.08;101432.59;5059294;28;20269;-70
2021/11/08 08:01:54;;;;;;;8.10;3.83;;;;;;;12.49;66.02;101428.56;5061151;28;20161;-71
2021/11/08 08:04:19;;;;;;;7.03;4.33;;;;;;;13.03;64.32;101432.69;5058497;28;20165;-74
2021/11/08 08:06:46;;;;;;;9.57;3.70;;;;;;;12.76;63.80;101442.00;5060742;28;20235;-73
2021/11/08 08:09:11;;;;;;;10.50;3.90;;;;;;;12.50;64.19;101435.56;5061015;28;20209;-72
2021/11/08 08:11:37;;;;;;;7.80;4.00;;;;;;;12.21;65.75;101430.81;5060354;28;20526;-72
2021/11/08 08:14:03;;;;;;;10.27;4.10;;;;;;;12.16;64.83;101440.31;5060584;28;20235;-72
2021/11/08 08:16:28;;;;;;;8.77;4.40;;;;;;;13.81;61.29;101429.03;5061925;28;20256;-72
2021/11/08 08:18:54;;;;;;;8.10;3.93;;;;;;;13.60;60.94;101435.03;5059893;28;20439;-70
2021/11/08 08:21:20;;;;;;;7.07;4.03;;;;;;;13.10;63.16;101444.13;5060339;28;20227;-70
2021/11/08 08:23:47;;;;;;;6.43;3.50;;;;;;;12.09;65.30;101444.59;5060957;28;20423;-71
2021/11/08 08:26:13;;;;;;;8.00;3.93;;;;;;;11.78;67.31;101447.59;5043170;28;20434;-70
2021/11/08 08:28:39;;;;;;;11.30;4.37;;;;;;;13.37;62.61;101440.94;5060132;28;20824;-70
2021/11/08 08:31:05;;;;;;;6.60;4.03;;;;;;;13.69;60.85;101432.44;5060710;28;20272;-71
2021/11/08 08:33:31;;;;;;;5.57;3.47;;;;;;;14.09;60.25;101435.34;5060383;28;20512;-69
2021/11/08 08:35:57;;;;;;;11.60;4.30;;;;;;;14.74;58.54;101430.44;5042980;28;20173;-69
2021/11/08 08:38:22;;;;;;;8.17;4.10;;;;;;;15.21;56.33;101430.56;5059689;28;20239;-69
2021/11/08 08:40:49;;;;;;;8.03;3.63;;;;;;;14.78;57.90;101423.47;5059904;28;20420;-69
2021/11/08 08:43:17;;;;;;;4.50;3.37;;;;;;;15.29;55.08;101427.09;5060243;28;20513;-69
2021/11/08 08:45:43;;;;;;;8.70;4.17;;;;;;;14.96;55.37;101426.16;5060707;28;20400;-72
2021/11/08 08:48:10;;;;;;;7.57;3.53;;;;;;;15.33;55.51;101433.22;5060225;28;20427;-73
2021/11/08 08:50:35;;;;;;;10.33;3.70;;;;;;;15.12;55.64;101428.81;5056465;28;20277;-73
2021/11/08 08:53:00;;;;;;;6.97;3.80;;;;;;;15.08;55.90;101425.28;5040244;28;20500;-72
2021/11/08 08:55:26;;;;;;;12.50;4.07;;;;;;;15.46;55.00;101431.47;5040121;28;20215;-72
2021/11/08 08:57:53;;;;;;;8.13;3.53;;;;;;;14.97;55.67;101435.78;5023043;28;20178;-72
2021/11/08 09:00:21;;;;;;;8.50;3.43;;;;;;;15.99;53.48;101445.50;5023284;28;20170;-71
2021/11/08 09:02:51;;;;;;;7.73;3.40;;;;;;;15.47;54.30;101446.38;5039909;28;20413;-70
2021/11/08 09:05:18;;;;;;;7.77;3.60;;;;;;;15.37;54.53;101442.88;5039736;28;20440;-69
2021/11/08 09:07:43;;;;;;;8.10;3.70;;;;;;;14.37;56.72;101448.63;5040214;28;20409;-70
2021/11/08 09:10:09;;;;;;;7.10;3.30;;;;;;;13.72;58.64;101455.19;5039599;28;20805;-69
2021/11/08 09:12:35;;;;;;;8.43;4.00;;;;;;;14.23;58.50;101455.53;5039493;28;20556;-71
2021/11/08 09:15:00;;;;;;;7.67;3.50;;;;;;;15.12;55.48;101447.19;5040113;28;20547;-71
2021/11/08 09:17:26;;;;;;;7.67;3.70;;;;;;;15.93;53.19;101446.38;5039548;28;20174;-72
2021/11/08 09:19:51;;;;;;;7.30;3.80;;;;;;;16.73;51.34;101455.81;5039591;28;20178;-71
2021/11/08 09:22:17;;;;;;;6.50;3.40;;;;;;;16.46;52.41;101457.66;5039734;28;20170;-70
2021/11/08 09:24:43;;;;;;;7.83;4.23;;;;;;;15.97;53.11;101465.69;5039599;28;20185;-70
2021/11/08 09:27:08;;;;;;;5.90;3.60;;;;;;;14.90;56.35;101464.66;5039519;28;20181;-70
2021/11/08 09:29:34;;;;;;;10.43;3.77;;;;;;;14.65;57.41;101469.78;5039658;28;20409;-70
2021/11/08 09:32:02;;;;;;;9.67;4.20;;;;;;;15.18;56.00;101469.97;5039021;28;20220;-69
2021/11/08 09:34:27;;;;;;;6.97;3.70;;;;;;;14.19;58.56;101477.38;5039211;28;20512;-70
2021/11/08 09:36:57;;;;;;;7.37;3.70;;;;;;;13.81;59.87;101476.22;5039491;28;20417;-70
2021/11/08 09:39:28;;;;;;;8.47;3.70;;;;;;;13.79;61.02;101480.59;5039303;28;20186;-70
2021/11/08 09:41:59;;;;;;;12.17;4.20;;;;;;;14.43;58.79;101477.50;5039151;28;20423;-70
2021/11/08 09:44:25;;;;;;;6.50;3.37;;;;;;;13.51;61.82;101479.47;5038981;28;20421;-71
2021/11/08 09:46:53;;;;;;;9.03;4.00;;;;;;;13.37;63.10;101481.94;5039197;28;20409;-70
2021/11/08 09:49:18;;;;;;;8.47;3.40;;;;;;;12.71;64.61;101482.91;5039396;28;20401;-69
2021/11/08 09:51:45;;;;;;;11.60;3.70;;;;;;;12.78;65.45;101479.50;5038403;28;20973;-69
2021/11/08 09:54:12;;;;;;;6.33;3.37;;;;;;;12.44;66.72;101489.53;5038940;28;20528;-70
2021/11/08 09:56:39;;;;;;;11.83;3.80;;;;;;;11.62;69.26;101501.31;5039250;28;20475;-69
2021/11/08 09:59:06;;;;;;;10.10;3.60;;;;;;;11.28;72.42;101495.47;5038733;28;20402;-69
2021/11/08 10:01:36;;;;;;;7.00;3.60;;;;;;;11.52;72.30;101498.50;5038760;28;20432;-69
2021/11/08 10:04:01;;;;;;;8.63;4.03;;;;;;;11.71;72.29;101494.47;5021887;28;20463;-70
2021/11/08 10:06:28;;;;;;;12.33;4.50;;;;;;;11.42;74.09;101493.09;5038648;28;20429;-69
2021/11/08 10:08:54;;;;;;;7.97;3.47;;;;;;;11.09;75.13;101507.25;5038625;28;20194;-69
2021/11/08 10:11:20;;;;;;;7.43;3.83;;;;;;;11.28;75.48;101499.78;5038625;28;20462;-70
2021/11/08 10:13:47;;;;;;;8.20;3.80;;;;;;;11.25;75.62;101502.34;5038507;28;20182;-69
2021/11/08 10:16:16;;;;;;;10.93;4.10;;;;;;;10.94;77.12;101504.34;5038415;28;20469;-70
2021/11/08 10:18:43;;;;;;;9.27;4.53;;;;;;;11.26;75.72;101506.72;5039019;28;20692;-69
2021/11/08 10:21:44;;;;;;;9.90;4.57;;;;;;;10.83;77.61;101513.69;5038001;28;20414;-69
2021/11/08 10:24:14;;;;;;;8.90;4.33;;;;;;;10.89;78.18;101503.38;5038481;28;20501;-71
2021/11/08 10:26:40;;;;;;;8.03;3.60;;;;;;;10.67;78.36;101502.91;5038437;28;20492;-72
2021/11/08 10:29:07;;;;;;;9.40;3.63;;;;;;;10.90;78.22;101502.53;5038368;28;20427;-71
2021/11/08 10:31:36;;;;;;;10.53;4.90;;;;;;;10.76;78.09;101495.28;5038356;28;20202;-71
2021/11/08 10:34:05;;;;;;;8.20;4.57;;;;;;;11.12;76.83;101501.22;5038227;28;20412;-70
2021/11/08 10:36:30;;;;;;;11.83;4.67;;;;;;;11.10;75.82;101506.41;5038106;28;20395;-71
2021/11/08 10:38:58;;;;;;;7.70;4.00;;;;;;;10.91;77.43;101505.16;5038513;28;20387;-70
2021/11/08 10:41:30;;;;;;;9.70;4.20;;;;;;;10.91;77.01;101507.78;5021197;28;20170;-70
2021/11/08 10:44:04;;;;;;;8.73;4.20;;;;;;;11.15;76.49;101510.84;5038014;28;20396;-70
2021/11/08 10:46:36;;;;;;;6.80;3.30;;;;;;;11.23;76.39;101511.88;5038136;28;20413;-70
2021/11/08 10:49:14;;;;;;;6.90;3.50;;;;;;;11.14;76.80;101512.59;5020714;28;20396;-69
2021/11/08 10:51:44;;;;;;;8.53;3.93;;;;;;;11.31;75.77;101518.09;5037532;28;20559;-70
2021/11/08 10:54:12;;;;;;;14.50;5.27;;;;;;;11.38;75.48;101512.19;5037831;28;20435;-70
2021/11/08 10:56:44;;;;;;;9.07;4.17;;;;;;;11.24;75.70;101505.81;5037795;28;20392;-70
2021/11/08 10:59:15;;;;;;;10.67;4.73;;;;;;;10.66;78.58;101519.41;5038185;28;20425;-70
2021/11/08 11:01:51;;;;;;;12.00;5.07;;;;;;;11.09;77.78;101509.00;5020706;28;20846;-71
2021/11/08 11:04:17;;;;;;;10.70;4.90;;;;;;;10.67;78.73;101505.53;5037946;28;20424;-70
2021/11/08 11:06:49;;;;;;;12.93;5.37;;;;;;;10.89;77.94;101499.06;5037580;28;20391;-70
2021/11/08 11:09:23;;;;;;;11.63;6.20;;;;;;;11.01;78.49;101501.00;5037874;28;20414;-70
2021/11/08 11:12:03;;;;;;;10.40;4.43;;;;;;;10.47;80.57;101506.81;5037547;28;20439;-70
2021/11/08 11:14:39;;;;;;;8.47;4.40;;;;;;;10.60;80.75;101503.63;5037724;28;20384;-70
2021/11/08 11:17:10;;;;;;;11.37;4.70;;;;;;;11.03;79.15;101501.06;5037904;28;20427;-70
2021/11/08 11:19:37;;;;;;;11.90;4.10;;;;;;;10.58;79.84;101500.09;5037996;28;20388;-70
2021/11/08 11:22:07;;;;;;;8.57;4.63;;;;;;;11.03;79.55;101493.22;5037690;28;20828;-69
2021/11/08 11:24:42;;;;;;;12.67;4.77;;;;;;;11.01;78.92;101489.69;5037697;28;20421;-69
2021/11/08 11:27:12;;;;;;;10.50;4.63;;;;;;;11.03;79.73;101494.09;5037663;28;20425;-73
2021/11/08 11:29:38;;;;;;;10.83;4.90;;;;;;;10.78;80.12;101484.88;5037530;28;20399;-74
2021/11/08 11:32:04;;;;;;;9.70;4.37;;;;;;;11.00;80.25;101488.84;5037884;28;20686;-70
2021/11/08 11:34:30;;;;;;;14.70;4.87;;;;;;;10.76;81.02;101490.06;5022671;28;20252;-71
2021/11/08 11:36:55;;;;;;;10.53;5.20;;;;;;;10.78;80.44;101491.00;5024305;28;20459;-71
2021/11/08 11:39:21;;;;;;;11.80;4.43;;;;;;;10.87;80.72;101486.81;5024788;28;20194;-71
2021/11/08 11:41:47;;;;;;;11.30;4.80;;;;;;;10.32;82.58;101487.34;5024139;28;20275;-71
2021/11/08 11:44:18;;;;;;;6.97;4.10;;;;;;;10.82;80.88;101478.88;5041228;28;20427;-70
2021/11/08 11:46:48;;;;;;;14.70;5.53;;;;;;;10.85;81.07;101480.69;5024437;28;20716;-70
2021/11/08 11:49:13;;;;;;;11.33;4.60;;;;;;;10.79;80.81;101478.81;5024154;28;20417;-70
2021/11/08 11:51:44;;;;;;;8.80;4.93;;;;;;;10.57;81.56;101488.81;5040860;28;20537;-71
2021/11/08 11:54:10;;;;;;;14.20;4.90;;;;;;;10.97;79.93;101473.09;5024146;28;20192;-71
2021/11/08 11:56:39;;;;;;;13.63;4.70;;;;;;;11.03;79.74;101475.84;5041141;28;20685;-76
2021/11/08 11:59:06;;;;;;;10.40;5.50;;;;;;;11.06;80.16;101482.84;5041359;28;20383;-71
2021/11/08 12:01:33;;;;;;;11.33;5.20;;;;;;;10.83;81.03;101478.03;5023768;28;20392;-70
2021/11/08 12:03:58;;;;;;;12.80;5.00;;;;;;;10.68;81.84;101477.75;5023785;28;20696;-70
2021/11/08 12:06:27;;;;;;;7.83;4.20;;;;;;;10.62;82.53;101481.06;5041320;28;20399;-69
2021/11/08 12:08:57;;;;;;;10.13;5.50;;;;;;;10.86;81.14;101475.50;5040801;28;20179;-68
2021/11/08 12:11:31;;;;;;;14.80;5.30;;;;;;;11.00;80.85;101478.41;5040596;28;20452;-69
2021/11/08 12:14:01;;;;;;;12.10;4.67;;;;;;;10.60;82.53;101474.97;5021222;28;20410;-70
2021/11/08 12:16:28;;;;;;;8.00;4.30;;;;;;;10.23;83.84;101479.34;5004040;28;20475;-68
2021/11/08 12:18:58;;;;;;;12.70;4.97;;;;;;;10.52;83.13;101493.03;5020937;28;20454;-71
2021/11/08 12:21:26;;;;;;;12.17;4.73;;;;;;;10.53;83.00;101493.94;5003881;28;20676;-71
2021/11/08 12:23:53;;;;;;;11.57;4.83;;;;;;;10.36;83.70;101489.19;5021044;28;20435;-72
2021/11/08 12:26:21;;;;;;;7.97;4.13;;;;;;;10.51;83.20;101493.88;5020740;28;20392;-72
2021/11/08 12:28:47;;;;;;;6.87;4.30;;;;;;;10.63;82.90;101493.25;5020727;28;20666;-70
2021/11/08 12:31:19;;;;;;;7.33;4.60;;;;;;;10.58;82.83;101497.50;5021018;28;20449;-71
2021/11/08 12:33:59;;;;;;;10.53;4.60;;;;;;;10.74;82.91;101497.00;5020723;28;20820;-71
2021/11/08 12:36:25;;;;;;;10.00;4.43;;;;;;;10.60;82.54;101501.03;5020545;28;20526;-71
2021/11/08 12:39:03;;;;;;;6.70;4.37;;;;;;;10.50;83.06;101501.66;5020533;28;20414;-70
2021/11/08 12:41:33;;;;;;;12.37;4.03;;;;;;;10.60;82.38;101498.44;5020486;28;20385;-70
2021/11/08 12:44:07;;;;;;;5.80;4.23;;;;;;;10.85;82.24;101498.94;5020163;28;20417;-70
2021/11/08 12:46:36;;;;;;;6.20;4.10;;;;;;;10.81;82.11;101497.13;5020307;28;20397;-67
2021/11/08 12:49:18;;;;;;;8.63;4.20;;;;;;;10.14;84.48;101498.22;5003243;28;20429;-73
2021/11/08 12:51:51;;;;;;;6.60;3.77;;;;;;;10.50;83.43;101501.66;5019961;28;20448;-70
2021/11/08 12:54:16;;;;;;;11.17;4.23;;;;;;;10.39;84.41;101504.94;5020380;28;20392;-73
2021/11/08 12:56:43;;;;;;;7.57;4.63;;;;;;;10.42;83.85;101507.59;5020290;28;20735;-71
2021/11/08 12:59:20;;;;;;;11.27;6.63;;;;;;;10.49;84.16;101507.75;5020061;28;20186;-72
2021/11/08 13:01:52;;;;;;;8.20;4.30;;;;;;;10.40;84.95;101509.28;5019769;28;20433;-70